Pagina principale
METAR-TAF:

METAR-TAF

Aeroporti :

Aeroporto di Londra Stansted

Londra-Stansted, Inghilterra

latitudine: 51-53N, longitudine: 000-14E, altezza: 106 m

Osservazione

Il bollettino è stato emesso 36 minuti fa, alle 23:20 UTC
Vento 8 kt da sud/sud-ovest
Temperature 13°C
Umidità 82%
Pressione 1018 hPa
Visibilità 10 km o più

METAR: EGSS 162320Z AUTO 21008KT 9999 NCD 13/10 Q1018

Ora: 00:56 (23:56 UTC)

Previsione

Il bollettino è stato emesso 1 ora e 3 minuti fa, alle 22:53 UTC
Previsione valida dal 17 alle 00 UTC al 18 alle 06 UTC
Vento 12 kt da sud/sud-ovest
Visibilità 10 km o più
Poco nuvoloso ad un'altezza di 4000 ft
Probabilità 30% :
Temporaneamente
dal 17 alle 01 UTC al 17 alle 07 UTC
Nuvoloso ad un'altezza di 900 ft
Probabilità 40% :
Temporaneamente
dal 18 alle 01 UTC al 18 alle 06 UTC
Visibilità: 7000 m

TAF: EGSS 162253Z 1700/1806 20012KT 9999 FEW040 PROB30 TEMPO 1701/1707 BKN009 PROB40 TEMPO 1801/1806 7000

Osservazioni e previsioni meteorologiche di più di 4000 aeroporti (messaggi METAR e TAF).

Le stazioni disponibili sono rappresentate dai dischi gialli e rossi sulla carta.

Puntare il mouse per vedere il nome della stazione.

Clicca sopra per visualizzare le osservazioni e previsioni meteorologiche.

Per cambiare la mappa : fare clic sui pulsanti verdi con una croce nera per ingrandire, il pulsante verde con un trattino per diminuire, o sulla freccia verde per le mappe adiacenti.


METAR-TAF: